Airfield :
LOGIN :

Register | Disclaimer

   EN    FR    IT 

 










Legend :    VFR   Marginal VFR   IFR   Intensive IFR   Very Intensive IFR
Visi :
Ceiling :
>= 8 km
>= 3000ft
5 to 8 km
1000 to 3000 ft
1500m to 5 km
500 to 1000 ft
800 to 1500m
200 to 500 ft
< 800m
< 200 ft
Symbols :   Thunderstorms  Fog  Heavy snow  Heavy precipitations  Wind > 20 kt
SIGMETs :     Misc.  Thunderstorms  Icing  Turbulence  Mountain Waves  Volcanic Ashes






- Airport Elevation : 268 ft
- IATA code : BFS


EGAA - Belfast Aldergrove

CURRENT METAR :
  • 291020Z 21013KT 9999 SCT031 BKN037 05/04 Q1001

EXPIRED METARs :
  • 290950Z 22012KT 9999 SCT035 BKN041 04/03 Q1001
  • 290920Z 22012KT 9999 FEW028 SCT034 BKN040 04/03 Q1001
  • 290850Z 21011KT 9999 FEW020 03/03 Q1002
  • 290820Z 21011KT 9999 FEW017 03/02 Q1001
  • 290750Z 21010KT 9999 FEW016 SCT031 03/02 Q1001

TAF TAF EGAA
Valid from the 29 at 06:00 until the 30 at 06:00 UTC


290457Z 2906/3006 22012KT 9999 FEW012 SCT025
PROB30
TEMPO 2906/2908 22015G25KT 7000 -SHRA BKN008
BECMG 2908/2911 23018G28KT
TEMPO 2908/2918 6000 -RADZ BKN012
PROB30
TEMPO 2918/3006 BKN012
BECMG 3000/3003 21015KT



MET'MAP, your aeronautical weather chart ! - Copyright ORBIFLY December 2007 - Disclaimer

ORBIFLY MET'MAP TEAM :

Programming & Development : Alexandra Zaïnal
Concept & original design : Baudouin d'Aumeries
Assistance for programming : Marc-Olivier Méhu
Technical & hardware support : Manuel Goepfert

Contact : metmap@orbifly.com




SOURCES & CREDITS :

   NOAA